^^
Station Historical Data
Daily Summary for December 08, 2017 Units:  Metric    English   Both
« Previous Day
Next Day »
Daily Weekly Monthly Yearly Custom
  High: Low: Average:
Temperature: 26.7 °C 18.1 °C 23.9 °C
Dew Point: 12.4 °C 5.7 °C 8.4 °C
Humidity: 67% 28% 38%
Wind Speed: 32km/h -1609.1km/h -6.3km/h
Wind Gust: 35.4km/h - -
Wind- - North
Pressure: 1025.6 hPa 1022.9 hPa -
Precipitation: 0 mm    
Historical Graphs
 
 
Tabular Data for December 08, 2017
Time Temperature Dew Point Pressure Wind Wind Speed Wind Gust Humidity Rainfall Rate (Hourly) solar Conditions
08:43 18.1 °C 11.9 °C 1025.6 hPa North -1609.1 km/h -1607.7 km/h 67% 0 mm meteobridge W/m2
08:49 18.3 °C 12.1 °C 1025.6 hPa NNE 22.7 km/h 22.7 km/h 67% 0 mm meteobridge W/m2
08:55 18.3 °C 12.1 °C 1025.6 hPa NNE 9.7 km/h 20.9 km/h 67% 0 mm meteobridge W/m2
08:59 18.6 °C 12.4 °C 1025.6 hPa NNE 9.7 km/h 19.3 km/h 67% 0 mm meteobridge W/m2
09:05 18.9 °C 11.9 °C 1025.6 hPa North 16.3 km/h 17.7 km/h 64% 0 mm meteobridge W/m2
09:24 19.7 °C 11.7 °C 1025.6 hPa NE 11.1 km/h 19.3 km/h 60% 0 mm meteobridge W/m2
09:30 19.9 °C 11.9 °C 1025.3 hPa NNE 6.4 km/h 9.7 km/h 60% 0 mm meteobridge W/m2
09:36 20.4 °C 11.6 °C 1025.3 hPa NNE 7.9 km/h 17.7 km/h 57% 0 mm meteobridge W/m2
09:48 20.5 °C 11.1 °C 1025.3 hPa NNE 16.3 km/h 24.1 km/h 55% 0 mm meteobridge W/m2
09:54 20.7 °C 11.1 °C 1025.6 hPa NE 11.1 km/h 24.1 km/h 54% 0 mm meteobridge W/m2
10:00 20.7 °C 11.1 °C 1025.6 hPa NE 9.7 km/h 19.3 km/h 54% 0 mm meteobridge W/m2
10:13 21.3 °C 11.3 °C 1025.6 hPa NE 9.7 km/h 17.7 km/h 53% 0 mm meteobridge W/m2
10:19 21.6 °C 11.3 °C 1025.6 hPa NE 7.9 km/h 20.9 km/h 52% 0 mm meteobridge W/m2
10:25 21.8 °C 11.2 °C 1025.6 hPa North 14.3 km/h 25.7 km/h 51% 0 mm meteobridge W/m2
10:31 21.9 °C 11.3 °C 1025.6 hPa NNE 13 km/h 16.1 km/h 51% 0 mm meteobridge W/m2
10:37 22.1 °C 10.6 °C 1025.6 hPa NNE 9.7 km/h 29 km/h 48% 0 mm meteobridge W/m2
10:43 22.4 °C 10.2 °C 1025.3 hPa NNE 19.5 km/h 29 km/h 46% 0 mm meteobridge W/m2
10:49 21.8 °C 10.6 °C 1025.3 hPa ENE 19.5 km/h 29 km/h 49% 0 mm meteobridge W/m2
10:55 22.2 °C 10 °C 1025.6 hPa NNE 19.5 km/h 25.7 km/h 46% 0 mm meteobridge W/m2
11:01 22.7 °C 10.2 °C 1025.6 hPa North 14.3 km/h 24.1 km/h 45% 0 mm meteobridge W/m2
11:07 22.8 °C 8.9 °C 1025.6 hPa North 25.9 km/h 32.2 km/h 41% 0 mm meteobridge W/m2
11:20 23 °C 9.4 °C 1025.6 hPa North 32 km/h 32.2 km/h 42% 0 mm meteobridge W/m2
11:26 23 °C 8.7 °C 1025.6 hPa NNE 17.7 km/h 27.4 km/h 40% 0 mm meteobridge W/m2
11:38 23.2 °C 9.6 °C 1025.6 hPa North 25.9 km/h 27.4 km/h 42% 0 mm meteobridge W/m2
11:44 23.2 °C 8.9 °C 1025.6 hPa NNW 16.3 km/h 27.4 km/h 40% 0 mm meteobridge W/m2
11:50 23.3 °C 9.7 °C 1025.6 hPa NNE 14.3 km/h 22.5 km/h 42% 0 mm meteobridge W/m2
12:02 22.7 °C 9.5 °C 1025.6 hPa NNW 6.4 km/h 24.1 km/h 43% 0 mm meteobridge W/m2
12:08 23.2 °C 8.1 °C 1025.6 hPa NE 14.3 km/h 30.6 km/h 38% 0 mm meteobridge W/m2
12:14 23.8 °C 9.4 °C 1025.6 hPa North 13 km/h 19.3 km/h 40% 0 mm meteobridge W/m2
12:20 23.9 °C 9.1 °C 1025.6 hPa North 7.9 km/h 25.7 km/h 39% 0 mm meteobridge W/m2
12:27 24.3 °C 9.1 °C 1025.6 hPa North 16.3 km/h 25.7 km/h 38% 0 mm meteobridge W/m2
12:33 24.3 °C 8.7 °C 1025.6 hPa North 22.7 km/h 24.1 km/h 37% 0 mm meteobridge W/m2
12:39 24.3 °C 9.8 °C 1025.6 hPa NNE 24.1 km/h 25.7 km/h 40% 0 mm meteobridge W/m2
12:45 24.1 °C 9.3 °C 1025.6 hPa North 20.9 km/h 27.4 km/h 39% 0 mm meteobridge W/m2
12:51 23.9 °C 8.3 °C 1025.6 hPa NE 14.3 km/h 24.1 km/h 37% 0 mm meteobridge W/m2
12:57 24.3 °C 9.1 °C 1025.6 hPa North 22.7 km/h 27.4 km/h 38% 0 mm meteobridge W/m2
13:03 24.2 °C 8.6 °C 1025.3 hPa NNE 11.1 km/h 24.1 km/h 37% 0 mm meteobridge W/m2
13:09 24.1 °C 8.5 °C 1025.3 hPa NNW 7.9 km/h 19.3 km/h 37% 0 mm meteobridge W/m2
13:15 24.5 °C 8.9 °C 1025.3 hPa NNW 14.3 km/h 24.1 km/h 37% 0 mm meteobridge W/m2
13:28 24.6 °C 7.7 °C 1025.3 hPa NNE 4.7 km/h 20.9 km/h 34% 0 mm meteobridge W/m2
13:34 24.4 °C 7.5 °C 1025.3 hPa North 6.4 km/h 19.3 km/h 34% 0 mm meteobridge W/m2
13:40 24.7 °C 7.8 °C 1025.3 hPa ENE 3.2 km/h 24.1 km/h 34% 0 mm meteobridge W/m2
13:52 24.9 °C 8 °C 1025.3 hPa NNW 16.3 km/h 29 km/h 34% 0 mm meteobridge W/m2
13:58 24.8 °C 7.9 °C 1025.3 hPa NNE 4.7 km/h 16.1 km/h 34% 0 mm meteobridge W/m2
14:04 25.3 °C 8.7 °C 1025.3 hPa North 19.5 km/h 30.6 km/h 35% 0 mm meteobridge W/m2
14:10 25.1 °C 9 °C 1025.3 hPa NNW 4.7 km/h 19.3 km/h 36% 0 mm meteobridge W/m2
14:16 25.3 °C 8.3 °C 1025.3 hPa NNW 6.4 km/h 12.9 km/h 34% 0 mm meteobridge W/m2
14:22 25.2 °C 8.6 °C 1025.3 hPa NNE 13 km/h 22.5 km/h 35% 0 mm meteobridge W/m2
14:28 25.3 °C 9.2 °C 1024.9 hPa ENE 4.7 km/h 8 km/h 36% 0 mm meteobridge W/m2
14:34 25.3 °C 8.3 °C 1025.3 hPa North 16.3 km/h 27.4 km/h 34% 0 mm meteobridge W/m2
14:40 24.6 °C 8.1 °C 1025.3 hPa North 14.3 km/h 27.4 km/h 35% 0 mm meteobridge W/m2
14:53 25.8 °C 8.3 °C 1024.9 hPa North 24.1 km/h 27.4 km/h 33% 0 mm meteobridge W/m2
14:59 25.6 °C 7.7 °C 1024.6 hPa NNE 4.7 km/h 17.7 km/h 32% 0 mm meteobridge W/m2
15:05 25.8 °C 7.4 °C 1024.6 hPa North 1.4 km/h 6.4 km/h 31% 0 mm meteobridge W/m2
15:11 26.5 °C 8 °C 1024.6 hPa NNE 17.7 km/h 35.4 km/h 31% 0 mm meteobridge W/m2
15:17 25.8 °C 7.4 °C 1024.6 hPa NE 9.7 km/h 30.6 km/h 31% 0 mm meteobridge W/m2
15:23 25.4 °C 6.6 °C 1024.6 hPa NNE 7.9 km/h 22.5 km/h 30% 0 mm meteobridge W/m2
15:29 25.3 °C 7.9 °C 1024.3 hPa NNE 11.1 km/h 17.7 km/h 33% 0 mm meteobridge W/m2
15:35 24.9 °C 7.1 °C 1024.3 hPa North 9.7 km/h 19.3 km/h 32% 0 mm meteobridge W/m2
15:41 25.1 °C 7.2 °C 1024.3 hPa Calm   6.4 km/h 32% 0 mm meteobridge W/m2
15:48 26.4 °C 8.4 °C 1023.9 hPa SSE 3.2 km/h 14.5 km/h 32% 0 mm meteobridge W/m2
15:54 26.7 °C 7.7 °C 1023.9 hPa North 14.3 km/h 29 km/h 30% 0 mm meteobridge W/m2
16:00 25.9 °C 7.5 °C 1023.9 hPa NNW 16.3 km/h 20.9 km/h 31% 0 mm meteobridge W/m2
16:06 24.6 °C 6.8 °C 1023.9 hPa North 19.5 km/h 20.9 km/h 32% 0 mm meteobridge W/m2
16:12 24.7 °C 6 °C 1023.9 hPa North 11.1 km/h 17.7 km/h 30% 0 mm meteobridge W/m2
16:18 25.4 °C 6.6 °C 1023.9 hPa North 14.3 km/h 22.5 km/h 30% 0 mm meteobridge W/m2
16:24 25.8 °C 6.4 °C 1023.6 hPa Calm   12.9 km/h 29% 0 mm meteobridge W/m2
16:30 25.3 °C 7.4 °C 1023.6 hPa NNE 3.2 km/h 19.3 km/h 32% 0 mm meteobridge W/m2
16:43 25.8 °C 7.4 °C 1023.2 hPa NNW 16.3 km/h 25.7 km/h 31% 0 mm meteobridge W/m2
16:55 25.6 °C 7.2 °C 1023.2 hPa North 9.7 km/h 14.5 km/h 31% 0 mm meteobridge W/m2
17:01 25.7 °C 6.8 °C 1023.2 hPa North 11.1 km/h 22.5 km/h 30% 0 mm meteobridge W/m2
17:07 25.6 °C 6.7 °C 1023.2 hPa NNE 9.7 km/h 14.5 km/h 30% 0 mm meteobridge W/m2
17:14 25.8 °C 5.9 °C 1023.2 hPa NNE 3.2 km/h 9.7 km/h 28% 0 mm meteobridge W/m2
17:20 26 °C 6.6 °C 1023.2 hPa ENE 1.4 km/h 9.7 km/h 29% 0 mm meteobridge W/m2
17:26 26 °C 6.1 °C 1023.2 hPa NNE 9.7 km/h 25.7 km/h 28% 0 mm meteobridge W/m2
17:32 25.8 °C 5.9 °C 1023.2 hPa ENE 1.4 km/h 9.7 km/h 28% 0 mm meteobridge W/m2
17:38 25.6 °C 6.2 °C 1023.2 hPa North 7.9 km/h 24.1 km/h 29% 0 mm meteobridge W/m2
17:44 25.4 °C 6.1 °C 1022.9 hPa North 1.4 km/h 17.7 km/h 29% 0 mm meteobridge W/m2
17:50 25.6 °C 6.2 °C 1022.9 hPa North 3.2 km/h 6.4 km/h 29% 0 mm meteobridge W/m2
17:56 25.5 °C 6.2 °C 1023.2 hPa NNE 7.9 km/h 24.1 km/h 29% 0 mm meteobridge W/m2
18:02 25.4 °C 6.1 °C 1022.9 hPa West 9.7 km/h 19.3 km/h 29% 0 mm meteobridge W/m2
18:08 25.3 °C 6 °C 1023.2 hPa NNW 14.3 km/h 32.2 km/h 29% 0 mm meteobridge W/m2
18:14 25.1 °C 5.8 °C 1023.2 hPa NNW 9.7 km/h 25.7 km/h 29% 0 mm meteobridge W/m2
18:27 25.1 °C 5.8 °C 1023.2 hPa West 7.9 km/h 12.9 km/h 29% 0 mm meteobridge W/m2
18:33 25 °C 5.7 °C 1023.6 hPa North 6.4 km/h 11.3 km/h 29% 0 mm meteobridge W/m2
18:39 24.8 °C 6 °C 1023.6 hPa NNW 7.9 km/h 8 km/h 30% 0 mm meteobridge W/m2
18:51 24.9 °C 6.1 °C 1023.6 hPa Calm   1.6 km/h 30% 0 mm meteobridge W/m2
19:03 25 °C 6.2 °C 1023.6 hPa WNW 6.4 km/h 11.3 km/h 30% 0 mm meteobridge W/m2
19:10 24.8 °C 6 °C 1023.6 hPa Calm   6.4 km/h 30% 0 mm meteobridge W/m2
19:16 24.6 °C 6.3 °C 1023.9 hPa North 14.3 km/h 16.1 km/h 31% 0 mm meteobridge W/m2
19:29 24.6 °C 6.3 °C 1023.9 hPa North 14.3 km/h -1607.7 km/h 31% 0 mm meteobridge W/m2
Regenstein, Windhoek, Namibia
Compliments of Weather Underground - 2.5 mb